createdAt,value
2023-01-27T00:01:19.195Z,100371.88
2023-01-27T00:06:21.181Z,100365.16
2023-01-27T00:11:41.283Z,100364.06
2023-01-27T00:16:42.988Z,100367.03
2023-01-27T00:22:03.250Z,100362.66
2023-01-27T00:27:08.979Z,100352.25
2023-01-27T00:32:31.890Z,100358.25
2023-01-27T00:37:33.848Z,100361.91
2023-01-27T00:42:35.716Z,100361.47
2023-01-27T00:47:37.418Z,100363.53
2023-01-27T00:52:39.834Z,100372.44
2023-01-27T00:57:42.946Z,100361.44
2023-01-27T01:02:44.681Z,100371.81
2023-01-27T01:07:46.414Z,100360.72
2023-01-27T01:12:48.169Z,100368.38
2023-01-27T01:17:49.872Z,100364.25
2023-01-27T01:22:51.571Z,100368.63
2023-01-27T01:27:53.298Z,100372.97
2023-01-27T01:32:55.406Z,100371.53
2023-01-27T01:37:57.772Z,100371.09
2023-01-27T01:43:01.727Z,100359.69
2023-01-27T01:48:08.860Z,100366.84
2023-01-27T01:53:11.965Z,100376.94
2023-01-27T01:58:14.132Z,100368.16
2023-01-27T02:03:16.404Z,100371.78
2023-01-27T02:08:25.069Z,100373.59
2023-01-27T02:13:26.835Z,100375.13
2023-01-27T02:18:28.877Z,100380.16
2023-01-27T02:23:47.137Z,100378.69
2023-01-27T02:29:00.804Z,100372.31
2023-01-27T02:34:16.850Z,100373.31
2023-01-27T02:39:22.283Z,100374.31
2023-01-27T02:44:24.359Z,100375.69
2023-01-27T02:49:26.277Z,100379.13
2023-01-27T02:54:30.276Z,100391.44
2023-01-27T02:59:32.405Z,100400.34
2023-01-27T03:04:38.826Z,100394.22
2023-01-27T03:09:40.601Z,100393.19
2023-01-27T03:15:00.841Z,100390.03
2023-01-27T03:20:03.461Z,100390.31
2023-01-27T03:25:05.826Z,100391.94
2023-01-27T03:30:09.533Z,100397.03
2023-01-27T03:35:14.544Z,100400.91
2023-01-27T03:40:36.220Z,100408.69
2023-01-27T03:45:56.610Z,100395.69
2023-01-27T03:50:59.312Z,100400.91
2023-01-27T03:56:01.128Z,100402.28
2023-01-27T04:01:09.136Z,100405.00
2023-01-27T04:06:38.637Z,100404.31
2023-01-27T04:11:55.368Z,100408.06
2023-01-27T04:17:05.731Z,100407.88
2023-01-27T04:22:09.766Z,100407.34
2023-01-27T04:27:13.844Z,100398.31
2023-01-27T04:32:15.748Z,100398.44
2023-01-27T04:37:18.032Z,100404.13
2023-01-27T04:42:20.089Z,100397.47
2023-01-27T04:47:21.952Z,100397.25
2023-01-27T04:52:23.691Z,100396.59
2023-01-27T04:57:27.011Z,100395.84
2023-01-27T05:02:28.805Z,100404.34
2023-01-27T05:07:32.279Z,100403.47
2023-01-27T05:12:34.076Z,100387.22
2023-01-27T05:17:35.881Z,100402.50
2023-01-27T05:22:37.719Z,100402.56
2023-01-27T05:27:39.583Z,100418.47
2023-01-27T05:32:41.427Z,100427.06
2023-01-27T05:37:43.154Z,100419.97
2023-01-27T05:42:44.923Z,100426.75
2023-01-27T05:47:51.584Z,100431.81
2023-01-27T05:52:53.402Z,100435.22
2023-01-27T05:57:55.151Z,100436.31
2023-01-27T06:02:57.149Z,100446.59
2023-01-27T06:07:59.162Z,100442.94
2023-01-27T06:13:01.083Z,100443.16
2023-01-27T06:18:03.000Z,100446.69
2023-01-27T06:23:05.726Z,100451.97
2023-01-27T06:28:10.764Z,100451.03
2023-01-27T06:33:14.895Z,100457.78
2023-01-27T06:38:17.249Z,100464.00
2023-01-27T06:43:18.970Z,100472.06
2023-01-27T06:48:21.067Z,100473.47
2023-01-27T06:53:23.194Z,100471.13
2023-01-27T06:58:25.646Z,100463.16
2023-01-27T07:03:27.900Z,100479.81
2023-01-27T07:08:29.686Z,100488.41
2023-01-27T07:13:31.598Z,100484.44
2023-01-27T07:18:33.431Z,100486.13
2023-01-27T07:23:35.291Z,100491.53
2023-01-27T07:28:37.048Z,100488.94
2023-01-27T07:33:38.863Z,100501.69
2023-01-27T07:38:40.836Z,100513.81
2023-01-27T07:43:42.884Z,100523.00
2023-01-27T07:48:44.674Z,100518.63
2023-01-27T07:53:47.000Z,100511.63
2023-01-27T07:58:48.799Z,100515.00
2023-01-27T08:03:50.936Z,100511.59
2023-01-27T08:08:52.710Z,100522.88
2023-01-27T08:13:54.376Z,100531.28
2023-01-27T08:18:56.650Z,100535.00
2023-01-27T08:24:01.863Z,100532.22
2023-01-27T08:29:03.601Z,100547.81
2023-01-27T08:34:05.353Z,100552.00
2023-01-27T08:39:07.065Z,100555.41
2023-01-27T08:44:08.757Z,100562.91
2023-01-27T08:49:10.464Z,100554.06
2023-01-27T08:54:12.196Z,100552.94
2023-01-27T08:59:13.924Z,100560.94
2023-01-27T09:04:15.658Z,100555.00
2023-01-27T09:09:17.445Z,100564.34
2023-01-27T09:14:20.203Z,100564.78
2023-01-27T09:19:21.939Z,100562.09
2023-01-27T09:24:23.701Z,100567.38
2023-01-27T09:29:25.463Z,100578.44
2023-01-27T09:34:27.119Z,100576.84
2023-01-27T09:39:31.902Z,100583.91
2023-01-27T09:45:04.156Z,100589.72
2023-01-27T09:50:08.540Z,100590.63
2023-01-27T09:55:28.532Z,100591.81
2023-01-27T10:00:59.740Z,100594.88
2023-01-27T10:06:20.456Z,100582.25
2023-01-27T10:11:34.326Z,100576.53
2023-01-27T10:16:45.552Z,100581.78
2023-01-27T10:22:16.404Z,100578.31
2023-01-27T10:27:26.224Z,100575.09
2023-01-27T10:32:34.428Z,100573.63
2023-01-27T10:37:54.277Z,100579.56
2023-01-27T10:43:26.642Z,100581.66
2023-01-27T10:48:46.112Z,100581.88
2023-01-27T10:54:05.750Z,100571.22
2023-01-27T10:59:22.529Z,100579.84
2023-01-27T11:04:46.829Z,100584.59
2023-01-27T11:09:57.326Z,100584.38
2023-01-27T11:15:01.152Z,100583.91
2023-01-27T11:20:29.812Z,100594.06
2023-01-27T11:25:52.829Z,100588.19
2023-01-27T11:31:37.851Z,100582.19
2023-01-27T11:36:39.938Z,100588.44
2023-01-27T11:41:51.655Z,100576.09
2023-01-27T11:46:55.492Z,100577.16
2023-01-27T11:52:19.155Z,100570.47
2023-01-27T11:57:24.257Z,100574.78
2023-01-27T12:02:35.865Z,100569.81
2023-01-27T12:07:46.233Z,100564.44
2023-01-27T12:12:48.489Z,100548.66
2023-01-27T12:18:14.367Z,100548.72
2023-01-27T12:23:24.446Z,100547.00
2023-01-27T12:28:36.601Z,100543.47
2023-01-27T12:33:43.101Z,100542.78
2023-01-27T12:38:52.272Z,100541.09
2023-01-27T12:43:57.427Z,100540.19
2023-01-27T12:49:10.407Z,100543.75
2023-01-27T12:54:21.740Z,100534.41
2023-01-27T12:59:25.698Z,100529.19
2023-01-27T13:04:29.032Z,100531.19
2023-01-27T13:09:33.868Z,100530.31
2023-01-27T13:14:41.507Z,100534.47
2023-01-27T13:19:45.914Z,100535.94
2023-01-27T13:24:52.978Z,100538.09
2023-01-27T13:30:02.260Z,100544.22
2023-01-27T13:35:41.814Z,100535.72
2023-01-27T13:40:45.896Z,100528.03
2023-01-27T13:45:55.604Z,100540.59
2023-01-27T13:51:22.101Z,100538.13
2023-01-27T13:57:04.592Z,100540.72
2023-01-27T14:02:38.949Z,100544.41
2023-01-27T14:07:54.583Z,100539.25
2023-01-27T14:13:30.087Z,100537.38
2023-01-27T14:18:39.601Z,100542.78
2023-01-27T14:23:54.406Z,100546.22
2023-01-27T14:29:17.125Z,100557.44
2023-01-27T14:34:37.274Z,100565.09
2023-01-27T14:39:57.363Z,100567.69
2023-01-27T14:45:26.489Z,100569.28
2023-01-27T14:51:03.595Z,100570.06
2023-01-27T14:56:14.075Z,100576.75
2023-01-27T15:01:24.901Z,100575.31
2023-01-27T15:06:31.292Z,100588.06
2023-01-27T15:11:40.957Z,100590.72
2023-01-27T15:16:57.612Z,100592.19
2023-01-27T15:22:05.291Z,100584.38
2023-01-27T15:27:08.778Z,100591.59
2023-01-27T15:32:27.416Z,100593.97
2023-01-27T15:37:29.324Z,100597.50
2023-01-27T15:42:51.267Z,100597.78
2023-01-27T15:48:06.749Z,100601.66
2023-01-27T15:53:15.373Z,100602.19
2023-01-27T15:58:35.691Z,100605.72
2023-01-27T16:03:44.969Z,100605.94
2023-01-27T16:08:52.397Z,100609.16
2023-01-27T16:14:12.306Z,100609.09
2023-01-27T16:19:13.933Z,100611.66
2023-01-27T16:24:39.958Z,100622.97
2023-01-27T16:29:45.299Z,100621.63
2023-01-27T16:34:47.015Z,100619.91
2023-01-27T16:40:06.219Z,100628.53
2023-01-27T16:45:20.426Z,100632.06
2023-01-27T16:50:40.211Z,100639.09
2023-01-27T16:55:42.283Z,100634.63
2023-01-27T17:00:46.976Z,100642.41
2023-01-27T17:05:53.179Z,100639.22
2023-01-27T17:10:58.108Z,100645.22
2023-01-27T17:16:03.642Z,100657.38
2023-01-27T17:21:05.843Z,100653.94
2023-01-27T17:26:15.174Z,100662.00
2023-01-27T17:31:23.739Z,100656.03
2023-01-27T17:36:26.037Z,100666.44
2023-01-27T17:41:38.026Z,100674.44
2023-01-27T17:46:41.326Z,100673.16
2023-01-27T17:51:51.388Z,100673.88
2023-01-27T17:57:32.590Z,100679.22
2023-01-27T18:02:36.463Z,100687.81
2023-01-27T18:07:38.271Z,100681.53
2023-01-27T18:12:39.982Z,100685.41
2023-01-27T18:17:41.996Z,100681.09
2023-01-27T18:22:44.704Z,100683.59
2023-01-27T18:27:52.865Z,100686.69
2023-01-27T18:33:01.597Z,100685.91
2023-01-27T18:38:19.633Z,100692.94
2023-01-27T18:43:21.345Z,100705.94
2023-01-27T18:48:23.422Z,100705.13
2023-01-27T18:53:25.259Z,100717.81
2023-01-27T18:58:27.480Z,100718.78
2023-01-27T19:03:38.923Z,100718.66
2023-01-27T19:08:40.647Z,100718.69
2023-01-27T19:13:43.420Z,100718.88
2023-01-27T19:18:45.293Z,100726.53
2023-01-27T19:23:49.432Z,100721.59
2023-01-27T19:28:55.667Z,100729.78
2023-01-27T19:33:58.948Z,100726.63
2023-01-27T19:39:13.210Z,100742.16
2023-01-27T19:44:15.925Z,100741.56
2023-01-27T19:49:25.433Z,100731.53
2023-01-27T19:54:27.389Z,100735.50
2023-01-27T19:59:29.195Z,100738.00
2023-01-27T20:04:30.997Z,100745.59
2023-01-27T20:09:32.725Z,100752.56
2023-01-27T20:14:34.368Z,100754.03
2023-01-27T20:19:36.238Z,100755.78
2023-01-27T20:24:37.938Z,100767.03
2023-01-27T20:29:39.737Z,100762.72
2023-01-27T20:34:41.446Z,100768.75
2023-01-27T20:39:43.963Z,100766.25
2023-01-27T20:44:45.733Z,100761.88
2023-01-27T20:49:47.425Z,100758.13
2023-01-27T20:54:49.187Z,100758.00
2023-01-27T20:59:50.955Z,100755.50
2023-01-27T21:04:53.525Z,100764.81
2023-01-27T21:09:55.214Z,100769.91
2023-01-27T21:14:57.133Z,100766.47
2023-01-27T21:19:58.859Z,100771.88
2023-01-27T21:25:00.574Z,100765.38
2023-01-27T21:30:02.322Z,100760.59
2023-01-27T21:35:04.284Z,100762.25
2023-01-27T21:40:06.521Z,100776.78
2023-01-27T21:45:13.002Z,100761.84
2023-01-27T21:50:15.140Z,100768.25
2023-01-27T21:55:22.928Z,100768.28
2023-01-27T22:00:27.154Z,100766.91
2023-01-27T22:05:31.416Z,100764.16
2023-01-27T22:10:33.272Z,100757.00
2023-01-27T22:15:35.475Z,100756.22
2023-01-27T22:20:37.163Z,100762.06
2023-01-27T22:25:38.943Z,100759.47
2023-01-27T22:30:40.730Z,100758.31
2023-01-27T22:35:45.599Z,100764.56
2023-01-27T22:40:55.608Z,100763.66
2023-01-27T22:46:02.230Z,100759.66
2023-01-27T22:51:04.744Z,100757.34
2023-01-27T22:56:07.050Z,100761.56
2023-01-27T23:01:08.957Z,100761.75
2023-01-27T23:06:10.723Z,100762.91
2023-01-27T23:11:14.471Z,100765.47
2023-01-27T23:16:16.379Z,100762.75
2023-01-27T23:21:18.256Z,100764.06
2023-01-27T23:26:20.089Z,100758.66
2023-01-27T23:31:22.106Z,100752.88
2023-01-27T23:36:26.104Z,100756.25
2023-01-27T23:41:27.922Z,100754.47
2023-01-27T23:46:30.294Z,100755.81
2023-01-27T23:51:32.108Z,100753.31
2023-01-27T23:56:33.798Z,100754.66
